Home > Products > Valid Products > TAF

000
FTUS44 KEWX 181800 AAA
TAFAUS
TAF AMD
KAUS 181833Z 1819/1924 04007KT P6SM SCT022 SCT250
     FM182000 06007KT P6SM SCT040 BKN250
     FM190700 14003KT 5SM BR SCT040 BKN250
     FM191000 VRB01KT 4SM BR OVC015
     FM191700 14009KT P6SM OVC035=



000
FTUS44 KEWX 181800 AAA
TAFSAT
TAF AMD
KSAT 181833Z 1819/1924 10005KT P6SM SCT050
     FM190800 13006KT 4SM BR OVC015
     FM191500 14007KT P6SM OVC025
     FM191700 15010KT P6SM OVC035=



000
FTUS44 KEWX 181700
TAFDRT
TAF
KDRT 181726Z 1818/1918 13007KT P6SM OVC040
     FM190200 11008KT P6SM BKN250
     FM190900 11010KT P6SM BKN015
     FM191700 13017KT P6SM OVC025=



000
FTUS44 KEWX 181700
TAFSAT
TAF
KSAT 181726Z 1818/1924 07006KT P6SM SCT028 BKN035
      TEMPO 1818/1819 BKN030
     FM182000 10006KT P6SM SCT035 BKN120
     FM190800 13006KT 4SM BR OVC015
     FM191500 14007KT P6SM OVC025
     FM191700 15010KT P6SM OVC035=



000
FTUS44 KEWX 181700
TAFAUS
TAF
KAUS 181726Z 1818/1924 04009KT P6SM FEW012 SCT016 SCT150
      TEMPO 1818/1819 BKN030
     FM182000 06007KT P6SM SCT040 BKN250
     FM190700 14003KT 5SM BR SCT040 BKN250
     FM191000 VRB01KT 4SM BR OVC015
     FM191700 14009KT P6SM OVC035=



000
FTUS44 KEWX 181400 AAB
TAFDRT
TAF AMD
KDRT 181439Z 1815/1912 11007KT P6SM SCT006 SCT024 OVC030
     FM181800 14012KT P6SM SCT035 BKN250
     FM190200 11010KT P6SM BKN250
     FM191100 11008KT P6SM BKN015=



000
FTUS44 KEWX 181400 AAA
TAFAUS
TAF AMD
KAUS 181437Z 1815/1918 00000KT 2SM BR OVC040
     FM181600 02005KT 5SM BR OVC040
     FM181800 06006KT P6SM SCT040 BKN250
     FM190800 VRB03KT 5SM BR BKN250
     FM191000 VRB03KT 4SM BR OVC020
     FM191500 15006KT P6SM OVC025=



000
FTUS44 KEWX 181400 AAB
TAFSAT
TAF AMD
KSAT 181437Z 1815/1918 04005KT P6SM FEW040 SCT250
     FM181600 07006KT 5SM BR BKN016
     FM181800 09007KT P6SM SCT035 BKN250
     FM190900 14006KT 4SM BR OVC015
     FM191500 15007KT P6SM OVC025=



000
FTUS44 KEWX 181200 AAA
TAFSAT
TAF AMD
KSAT 181249Z 1813/1918 35004KT 5SM -DZ BR SCT010 BKN035
      TEMPO 1813/1815 3SM -DZ BR OVC005
     FM181600 08006KT 5SM BR BKN016
     FM181800 09007KT P6SM SCT035 BKN250
     FM190900 14006KT 4SM BR OVC015
     FM191500 15007KT P6SM OVC025=



000
FTUS44 KEWX 181200 AAA
TAFDRT
TAF AMD
KDRT 181248Z 1813/1912 10007KT 3SM -RA BR SCT005 BKN011 OVC016
      TEMPO 1813/1815 2SM -RA BR BKN005 OVC015
     FM181500 11008KT P6SM BKN015
     FM181800 14012KT P6SM SCT035 BKN250
     FM190200 11010KT P6SM BKN250
     FM191100 11008KT P6SM BKN015=



000
FTUS44 KEWX 181100
TAFAUS
TAF
KAUS 181130Z 1812/1918 VRB03KT 3SM -DZ BR OVC020
      TEMPO 1812/1814 1SM -DZ BR OVC015
     FM181500 02006KT 5SM BR BKN020 OVC035
     FM181800 06006KT P6SM SCT040 BKN250
     FM190800 VRB03KT 5SM BR BKN250
     FM191000 VRB03KT 4SM BR OVC020
     FM191500 15006KT P6SM OVC025=



000
FTUS44 KEWX 181100
TAFSAT
TAF
KSAT 181130Z 1812/1918 02004KT 4SM -DZ BR SCT005 BKN008 OVC035
      TEMPO 1812/1814 2SM -DZ BR OVC005
     FM181600 08006KT 5SM BR BKN016
     FM181800 09007KT P6SM SCT035 BKN250
     FM190900 14006KT 4SM BR OVC015
     FM191500 15007KT P6SM OVC025=



000
FTUS44 KEWX 181100
TAFDRT
TAF
KDRT 181130Z 1812/1912 11005KT 4SM -RA BR SCT006 BKN013 OVC020
      TEMPO 1812/1815 2SM -RA BR BKN005 OVC015
     FM181500 11008KT P6SM BKN015
     FM181800 14012KT P6SM SCT035 BKN250
     FM190200 11010KT P6SM BKN250
     FM191100 11008KT P6SM BKN015=



000
FTUS44 KEWX 181000 AAC
TAFDRT
TAF AMD
KDRT 181016Z 1810/1906 12009KT P6SM OVC014
     FM181200 10008KT 4SM BR OVC010
     FM181500 11008KT P6SM BKN015
     FM181800 13010KT P6SM SCT035 BKN250=



000
FTUS44 KEWX 181000 AAE
TAFSAT
TAF AMD
KSAT 181013Z 1810/1912 VRB03KT 5SM BR OVC035
     FM181200 03003KT 3SM -DZ BR OVC010
      TEMPO 1812/1814 1SM BR OVC005
     FM181600 08006KT 5SM BR OVC015
     FM181800 09007KT P6SM BKN035
     FM191000 14006KT 4SM BR BKN010=



000
FTUS44 KEWX 181000 AAD
TAFAUS
TAF AMD
KAUS 181011Z 1810/1912 VRB03KT 4SM BR OVC020
     FM181200 02003KT 3SM BR OVC010
      TEMPO 1812/1814 1SM BR OVC005
     FM181500 01007KT 5SM BR OVC008
     FM181700 04007KT P6SM OVC012
     FM181900 06006KT P6SM BKN035
     FM190900 VRB03KT 3SM BR BKN250=



000
FTUS44 KEWX 180900 AAD
TAFSAT
TAF AMD
KSAT 180907Z 1809/1912 VRB03KT 4SM BR BKN007 OVC030
     FM181100 03003KT 3SM -DZ BR OVC005
      TEMPO 1811/1814 1SM BR OVC003
     FM181600 08006KT 5SM BR OVC015
     FM181800 09007KT P6SM BKN035
     FM191000 14006KT 4SM BR BKN010=



000
FTUS44 KEWX 180900 AAC
TAFAUS
TAF AMD
KAUS 180905Z 1809/1912 VRB03KT 5SM BR OVC030
     FM181100 02005KT 3SM BR OVC005
      TEMPO 1811/1814 1/2SM FG OVC003
     FM181500 01007KT 5SM BR OVC008
     FM181700 04007KT P6SM OVC012
     FM181900 06006KT P6SM BKN035
     FM190900 VRB03KT 3SM BR BKN250=



000
FTUS44 KEWX 180800 AAC
TAFSAT
TAF AMD
KSAT 180804Z 1808/1912 VRB03KT 6SM -DZ BR FEW007 OVC014
     FM181000 03003KT 3SM -DZ BR OVC005
      TEMPO 1811/1814 1/2SM FG OVC003
     FM181600 08006KT 5SM BR OVC015
     FM181800 09007KT P6SM BKN035
     FM191000 14006KT 4SM BR BKN010=



000
FTUS44 KEWX 180700 AAB
TAFDRT
TAF AMD
KDRT 180728Z 1807/1906 11010KT P6SM BKN015
     FM181100 10008KT 4SM BR BKN008
     FM181500 11008KT P6SM BKN015
     FM181800 13010KT P6SM SCT035 BKN250=



000
FTUS44 KEWX 180700 AAB
TAFSAT
TAF AMD
KSAT 180726Z 1807/1912 VRB03KT 6SM -DZ BR BKN006 OVC025
     FM181000 03003KT 3SM -DZ BR OVC005
      TEMPO 1811/1814 1/2SM FG OVC003
     FM181600 08006KT 5SM BR OVC015
     FM181800 09007KT P6SM BKN035
     FM191000 14006KT 4SM BR BKN010=



000
FTUS44 KEWX 180700 AAB
TAFAUS
TAF AMD
KAUS 180724Z 1807/1912 13003KT 5SM BR OVC015
     FM181000 02005KT 3SM BR OVC005
      TEMPO 1811/1814 1/2SM FG OVC003
     FM181500 01007KT 5SM BR OVC008
     FM181700 04007KT P6SM OVC012
     FM181900 06006KT P6SM BKN035
     FM190900 VRB03KT 3SM BR BKN250=



000
FTUS44 KEWX 180600 AAA
TAFDRT
TAF AMD
KDRT 180622Z 1806/1906 10013KT P6SM BKN015
     FM180800 10008KT 4SM BR BKN008
     FM181500 11008KT P6SM BKN015
     FM181800 13010KT P6SM SCT035 BKN250=



000
FTUS44 KEWX 180600 AAA
TAFAUS
TAF AMD
KAUS 180611Z 1806/1912 13007KT 3SM -DZ BR BKN005 OVC010
      TEMPO 1806/1808 1SM BR OVC005
     FM180800 02005KT 1/2SM FG OVC002
     FM181500 01007KT 5SM BR OVC008
     FM181700 04007KT P6SM OVC012
     FM181900 06006KT P6SM BKN035
     FM190900 VRB03KT 3SM BR BKN250=



000
FTUS44 KEWX 180600 AAA
TAFSAT
TAF AMD
KSAT 180606Z 1806/1912 10006KT 4SM -RA BR BKN006 OVC014
     FM180800 03003KT 1/2SM -DZ FG OVC002
      TEMPO 1810/1814 1/2SM FG
     FM181600 08006KT 5SM BR OVC015
     FM181800 09007KT P6SM BKN035
     FM191000 14006KT 4SM BR BKN010=



000
FTUS44 KEWX 180500
TAFSAT
TAF
KSAT 180530Z 1806/1912 08004KT 1SM -RA BR BKN003 OVC012
     FM180800 03003KT 1/2SM -DZ FG OVC002
      TEMPO 1810/1814 1/2SM FG
     FM181600 08006KT 5SM BR OVC015
     FM181800 09007KT P6SM BKN035
     FM191000 14006KT 4SM BR BKN010=



000
FTUS44 KEWX 180500
TAFAUS
TAF
KAUS 180530Z 1806/1912 05007KT 4SM -DZ BR SCT016 BKN025
      TEMPO 1806/1808 1SM BR OVC010
     FM180800 02005KT 1/2SM FG OVC002
     FM181500 01007KT 5SM BR OVC008
     FM181700 04007KT P6SM OVC012
     FM181900 06006KT P6SM BKN035
     FM190900 VRB03KT 3SM BR BKN250=



000
FTUS44 KEWX 180500
TAFDRT
TAF
KDRT 180530Z 1806/1906 10013KT P6SM SCT060
     FM180800 10008KT 4SM BR BKN008
     FM181500 11008KT P6SM BKN015
     FM181800 13010KT P6SM SCT035 BKN250=



000
FTUS44 KEWX 180400 AAB
TAFAUS
TAF AMD
KAUS 180429Z 1804/1906 05007KT 6SM -RADZ BR FEW004 SCT017 BKN029
      TEMPO 1805/1808 2SM BR
     FM180800 02005KT 1/2SM FG OVC002
     FM181500 01007KT 5SM BR OVC008
     FM181700 04007KT P6SM OVC012
     FM181900 06006KT P6SM BKN035=



000
FTUS44 KEWX 180200 AAA
TAFAUS
TAF AMD
KAUS 180259Z 1803/1906 05007KT 2SM -RADZ BR FEW004 SCT017 BKN029
      TEMPO 1803/1807 1SM BR OVC004
     FM180800 02005KT 1/2SM FG OVC002
     FM181500 01007KT 5SM BR OVC008
     FM181700 04007KT P6SM OVC012
     FM181900 06006KT P6SM BKN035=



000
FTUS44 KEWX 180200 AAB
TAFSAT
TAF AMD
KSAT 180257Z 1803/1906 09004KT 4SM -DZ BR OVC005
      TEMPO 1803/1806 1SM -RADZ BR OVC003
     FM180600 03003KT 1SM -DZ BR OVC002
     FM181600 08006KT 5SM BR OVC015
     FM181800 09007KT P6SM BKN035=



000
FTUS44 KEWX 172300 CCA
TAFSAT
TAF COR
KSAT 172350Z 1800/1906 08009KT 5SM -DZ BR SCT009 BKN015 OVC023
      TEMPO 1800/1804 2SM -RADZ BR OVC007
     FM180600 03003KT 3SM -DZ BR OVC004
     FM181200 04006KT 1SM -DZ BR OVC002
     FM181600 08006KT 5SM BR OVC015
     FM181800 09007KT P6SM BKN035=



000
FTUS44 KEWX 172300 AAA
TAFSAT
TAF AMD
KSAT 172348Z 1800/1906 08009KT 6SM -DZ BR BKN009 OVC023
     FM180300 07006KT 5SM -DZ BR OVC008
     FM180800 03003KT 4SM -DZ BR OVC004
     FM181200 04006KT 1SM -DZ BR OVC002
     FM181600 08006KT 5SM BR OVC015
     FM181800 09007KT P6SM BKN035=



000
FTUS44 KEWX 172300
TAFAUS
TAF
KAUS 172338Z 1800/1906 00000KT 6SM -DZ BR FEW010 BKN021 OVC030
     FM180200 05007KT 5SM -DZ BR OVC009
     FM180700 01004KT 1SM BR OVC004
     FM181100 02005KT 1/2SM FG OVC002
     FM181500 01007KT 5SM BR OVC008
     FM181700 04007KT P6SM OVC012
     FM181900 06006KT P6SM BKN035=



000
FTUS44 KEWX 172300
TAFDRT
TAF
KDRT 172338Z 1800/1824 13005KT P6SM SCT050
     FM180400 11010KT P6SM BKN022
     FM180600 10008KT 4SM BR BKN008
     FM181500 11008KT P6SM BKN015
     FM181800 13010KT P6SM BKN250=



000
FTUS44 KEWX 172300
TAFSAT
TAF
KSAT 172338Z 1800/1906 08009KT 6SM -DZ BR BKN010 OVC023
     FM180300 07006KT 5SM -DZ BR OVC008
     FM180800 03003KT 4SM -DZ BR OVC004
     FM181200 04006KT 1SM -DZ BR OVC002
     FM181600 08006KT 5SM BR OVC015
     FM181800 09007KT P6SM BKN035=



000
FTUS44 KEWX 172000 AAA
TAFAUS
TAF AMD
KAUS 172055Z 1721/1824 09006KT 4SM BR BKN018 OVC030
     FM180300 05007KT P6SM OVC009
     FM180900 01004KT 2SM BR OVC004
     FM181100 02005KT 2SM BR OVC002
     FM181500 01007KT 5SM BR OVC008
     FM181700 04007KT P6SM OVC012
     FM181900 06006KT P6SM SCT015=



000
FTUS44 KEWX 171700
TAFAUS
TAF
KAUS 171732Z 1718/1824 11006KT P6SM SCT019 OVC035
      TEMPO 1718/1721 BKN019
     FM172100 12010KT P6SM BKN018
     FM180300 05007KT P6SM OVC009
     FM180900 01004KT 2SM BR OVC004
     FM181100 02005KT 2SM BR OVC002
     FM181500 01007KT 5SM BR OVC008
     FM181700 04007KT P6SM OVC012
     FM181900 06006KT P6SM SCT015=



000
FTUS44 KEWX 171700
TAFDRT
TAF
KDRT 171732Z 1718/1818 13010KT P6SM SCT025
     FM180300 11010KT P6SM BKN022
     FM180600 10008KT P6SM BKN009
     FM181500 11008KT P6SM BKN015=



000
FTUS44 KEWX 171700
TAFSAT
TAF
KSAT 171732Z 1718/1824 10008KT P6SM BKN017 OVC040
      TEMPO 1718/1720 SCT017 BKN025
     FM180300 07006KT P6SM OVC008
     FM180800 03003KT 4SM BR OVC004
     FM181200 04006KT 2SM BR OVC002
     FM181500 06006KT 5SM BR OVC015
     FM181800 08007KT P6SM SCT015=



000
FTUS44 KEWX 171500 AAB
TAFAUS
TAF AMD
KAUS 171542Z 1716/1818 11007KT P6SM BKN029 OVC035
     FM172100 12010KT P6SM BKN018
     FM180300 05007KT 4SM -DZ BR OVC009
     FM180900 01004KT 2SM -DZ BR OVC004
     FM181500 01007KT 5SM BR OVC015=



000
FTUS44 KEWX 171500 AAA
TAFSAT
TAF AMD
KSAT 171502Z 1715/1818 13012KT P6SM BKN013 BKN020
     FM171600 13012KT P6SM BKN020
     FM180300 07006KT 4SM -DZ BR OVC008
     FM180800 03003KT 2SM -DZ BR OVC004
     FM181500 03006KT 5SM BR OVC015=



000
FTUS44 KEWX 171400 AAA
TAFAUS
TAF AMD
KAUS 171458Z 1715/1818 08006KT P6SM BKN035 OVC050
     FM180300 05007KT 4SM -DZ BR OVC009
     FM180900 01004KT 2SM -DZ BR OVC004
     FM181500 01007KT 5SM BR OVC015=



000
FTUS44 KEWX 171400 AAA
TAFAUS
TAF AMD
KAUS 171423Z 1714/1818 09007KT P6SM SCT020 BKN030
      TEMPO 1715/1717 BKN015
     FM171700 14007KT P6SM BKN015
     FM180300 05007KT 4SM -DZ BR OVC009
     FM180900 01004KT 2SM -DZ BR OVC004
     FM181500 01007KT 5SM BR OVC015=



000
FTUS44 KEWX 171100
TAFDRT
TAF
KDRT 171140Z 1712/1812 12011KT P6SM OVC250
     FM171400 12011KT 6SM BR BKN015
     FM171700 13012KT P6SM BKN035
     FM180300 11010KT P6SM BKN022
     FM180900 11006KT 5SM BR OVC009=



000
FTUS44 KEWX 171100
TAFAUS
TAF
KAUS 171140Z 1712/1818 11007KT 5SM BR BKN015
     FM171400 15007KT 5SM -DZ BR OVC009
     FM171700 14007KT P6SM BKN017
     FM180300 05007KT 4SM -DZ BR OVC009
     FM180900 01004KT 2SM -DZ BR OVC004
     FM181500 01007KT 5SM BR OVC015=



000
FTUS44 KEWX 171100
TAFSAT
TAF
KSAT 171140Z 1712/1818 10007KT P6SM BKN015
     FM171400 14007KT 5SM -DZ BR OVC012
     FM171700 13008KT P6SM BKN020
     FM180300 07006KT 4SM -DZ BR OVC008
     FM180800 03003KT 2SM -DZ BR OVC004
     FM181500 03006KT 5SM BR OVC015=



000
FTUS44 KEWX 171100 AAB
TAFSAT
TAF AMD
KSAT 171104Z 1711/1812 12009KT P6SM BKN025
     FM171300 14007KT 4SM -DZ BR OVC014
     FM171500 13008KT P6SM BKN020
     FM180300 07006KT 4SM -DZ BR OVC007=



000
FTUS44 KEWX 171100 AAA
TAFAUS
TAF AMD
KAUS 171103Z 1711/1812 11007KT 5SM BR BKN015
     FM171300 15007KT 5SM -DZ BR OVC009
     FM171700 14007KT P6SM BKN017
     FM180300 05007KT 4SM -DZ BR OVC009=



000
FTUS44 KEWX 170900 AAA
TAFSAT
TAF AMD
KSAT 170918Z 1709/1812 15009KT P6SM BKN022
     FM171100 14007KT 4SM -DZ BR OVC014
     FM171500 13008KT P6SM BKN020
     FM180300 07006KT 4SM -DZ BR OVC007=



000
FTUS44 KEWX 170800 AAA
TAFDRT
TAF AMD
KDRT 170806Z 1708/1806 12011KT P6SM OVC250
     FM171000 12011KT 6SM BR BKN015
     FM171700 13012KT P6SM BKN035
     FM180300 11010KT P6SM BKN022=



000
FTUS44 KEWX 170500 RRA
TAFSAT
TAF
KSAT 170543Z 1706/1812 14013KT P6SM BKN250
     FM170800 15009KT 5SM BR BKN012
     FM171100 14007KT 4SM -DZ BR OVC007
     FM171500 13008KT P6SM BKN020
     FM180300 07006KT 4SM -DZ BR OVC007=



000
FTUS44 KEWX 170500 RRA
TAFDRT
TAF
KDRT 170543Z 1706/1806 12011KT P6SM OVC250
     FM170800 12011KT 6SM BR BKN009
     FM171700 13012KT P6SM BKN035
     FM180300 11010KT P6SM BKN022=



000
FTUS44 KEWX 170500 RRA
TAFAUS
TAF
KAUS 170543Z 1706/1812 16011KT P6SM BKN250
     FM170900 15007KT 5SM BR BKN011
     FM171100 15007KT 5SM -DZ BR OVC009
     FM171700 14007KT P6SM BKN017
     FM180300 05007KT 4SM -DZ BR OVC009=



000
FTUS44 KEWX 170400 AAA
TAFDRT
TAF AMD
KDRT 170418Z 1704/1724 13011KT P6SM OVC250
     FM170800 12014KT P6SM BKN014
     FM171500 13012KT P6SM BKN040=



000
FTUS44 KEWX 162300
TAFSAT
TAF
KSAT 162336Z 1700/1806 17015KT P6SM FEW060 BKN250
     FM170200 15010KT P6SM SCT045 BKN250
     FM170700 15009KT P6SM OVC017
     FM171000 14007KT 5SM -DZ BR BKN009
     FM171500 13008KT P6SM VCSH BKN020=



000
FTUS44 KEWX 162300
TAFDRT
TAF
KDRT 162336Z 1700/1724 13014G24KT P6SM OVC250
     FM170800 12014KT P6SM BKN014
     FM171500 13012KT P6SM BKN040=



000
FTUS44 KEWX 162300
TAFAUS
TAF
KAUS 162336Z 1700/1806 15016KT P6SM SCT060 BKN250
     FM170200 16009KT P6SM SCT040 BKN250
     FM170700 15007KT P6SM BKN016
     FM171000 15007KT 5SM -DZ BR BKN009
     FM171500 14007KT P6SM VCSH BKN025=



000
FTUS44 KEWX 161700
TAFAUS
TAF
KAUS 161739Z 1618/1724 16015KT P6SM SCT200
     FM170200 16009KT P6SM SCT040 BKN250
     FM170700 15007KT P6SM BKN016
     FM171000 15007KT 5SM -DZ BR BKN009
     FM171500 14007KT P6SM VCSH BKN025=



000
FTUS44 KEWX 161700
TAFSAT
TAF
KSAT 161739Z 1618/1724 16016KT P6SM BKN250
     FM170200 15010KT P6SM SCT045 BKN250
     FM170700 15009KT P6SM OVC017
     FM171000 15007KT 5SM -DZ BR BKN009
     FM171500 13008KT P6SM VCSH BKN020=



000
FTUS44 KEWX 161700
TAFDRT
TAF
KDRT 161739Z 1618/1718 14016G25KT P6SM SCT300
     FM170100 13012KT P6SM SCT045 SCT250
     FM170800 12012KT P6SM BKN020
     FM171500 13012KT P6SM BKN040=



000
FTUS44 KEWX 161100
TAFDRT
TAF
KDRT 161138Z 1612/1712 12010KT P6SM SKC
     FM161500 14015G25KT P6SM SCT250
     FM170000 12011KT P6SM SCT250
     FM170800 12010KT P6SM OVC015=



000
FTUS44 KEWX 161100
TAFAUS
TAF
KAUS 161138Z 1612/1718 14006KT P6SM SKC
     FM161500 17015KT P6SM SCT250
     FM170200 16009KT P6SM SCT040 BKN250
     FM170700 15007KT P6SM BKN015
     FM171100 15007KT 5SM -DZ BR BKN009=



000
FTUS44 KEWX 161100
TAFSAT
TAF
KSAT 161138Z 1612/1718 15005KT P6SM SKC
     FM161500 16015KT P6SM SCT250
     FM170200 15008KT P6SM SCT040 BKN250
     FM170700 15008KT P6SM OVC015
     FM171000 15007KT 5SM -DZ BR BKN009=



000
FTUS44 KEWX 160500
TAFDRT
TAF
KDRT 160536Z 1606/1706 12010KT P6SM SKC
     FM161500 14017KT P6SM SCT250
     FM170000 12010KT P6SM SCT250=



000
FTUS44 KEWX 160500
TAFAUS
TAF
KAUS 160536Z 1606/1712 13003KT P6SM SKC
     FM161500 16014KT P6SM FEW250
     FM170900 15007KT P6SM BKN012=



000
FTUS44 KEWX 160500
TAFSAT
TAF
KSAT 160536Z 1606/1712 14005KT P6SM SKC
     FM161500 16015KT P6SM SCT250
     FM170700 15010KT P6SM OVC015=



000
FTUS44 KEWX 152300
TAFSAT
TAF
KSAT 152336Z 1600/1706 14005KT P6SM SKC
     FM161500 16015KT P6SM FEW050=



000
FTUS44 KEWX 152300
TAFAUS
TAF
KAUS 152336Z 1600/1706 13003KT P6SM SKC
     FM161500 16014KT P6SM FEW050=



000
FTUS44 KEWX 152300
TAFDRT
TAF
KDRT 152336Z 1600/1624 15010KT P6SM SKC
     FM160300 12012KT P6SM SKC
     FM161500 14017KT P6SM SCT050=



    US Dept of Commerce
    National Oceanic and Atmospheric Administration
    National Weather Service
    1325 East West Highway
    Silver Spring, MD 20910
    Page Author: NWS Internet Services Team
Disclaimer
Information Quality
Credits
Glossary
Privacy Policy
Freedom of Information Act (FOIA)
About Us
Career Opportunities